sensor_id;sensor_type;location;lat;lon;timestamp;P1;durP1;ratioP1;P2;durP2;ratioP2
26038;SDS011;13815;52.374;4.882;2023-05-29T00:00:24;37.65;;;25.27;;
26038;SDS011;13815;52.374;4.882;2023-05-29T00:02:50;41.03;;;25.35;;
26038;SDS011;13815;52.374;4.882;2023-05-29T00:05:16;43.05;;;25.27;;
26038;SDS011;13815;52.374;4.882;2023-05-29T00:07:41;40.42;;;25.58;;
26038;SDS011;13815;52.374;4.882;2023-05-29T00:10:08;36.10;;;24.98;;
26038;SDS011;13815;52.374;4.882;2023-05-29T00:12:34;38.70;;;25.15;;
26038;SDS011;13815;52.374;4.882;2023-05-29T00:15:00;42.63;;;25.98;;
26038;SDS011;13815;52.374;4.882;2023-05-29T00:17:26;43.35;;;26.10;;
26038;SDS011;13815;52.374;4.882;2023-05-29T00:19:51;39.97;;;25.75;;
26038;SDS011;13815;52.374;4.882;2023-05-29T00:22:17;43.50;;;26.02;;
26038;SDS011;13815;52.374;4.882;2023-05-29T00:24:43;46.92;;;26.30;;
26038;SDS011;13815;52.374;4.882;2023-05-29T00:27:08;41.65;;;25.45;;
26038;SDS011;13815;52.374;4.882;2023-05-29T00:29:35;40.65;;;25.33;;
26038;SDS011;13815;52.374;4.882;2023-05-29T00:32:01;42.83;;;25.30;;
26038;SDS011;13815;52.374;4.882;2023-05-29T00:34:27;37.45;;;25.20;;
26038;SDS011;13815;52.374;4.882;2023-05-29T00:36:52;37.95;;;24.92;;
26038;SDS011;13815;52.374;4.882;2023-05-29T00:39:19;44.13;;;25.85;;
26038;SDS011;13815;52.374;4.882;2023-05-29T00:41:45;36.58;;;24.98;;
26038;SDS011;13815;52.374;4.882;2023-05-29T00:44:10;41.88;;;25.20;;
26038;SDS011;13815;52.374;4.882;2023-05-29T00:46:36;46.47;;;26.30;;
26038;SDS011;13815;52.374;4.882;2023-05-29T00:49:01;37.90;;;24.77;;
26038;SDS011;13815;52.374;4.882;2023-05-29T00:51:27;42.63;;;25.17;;
26038;SDS011;13815;52.374;4.882;2023-05-29T00:53:53;41.45;;;25.77;;
26038;SDS011;13815;52.374;4.882;2023-05-29T00:56:19;36.95;;;25.00;;
26038;SDS011;13815;52.374;4.882;2023-05-29T00:58:46;44.28;;;25.85;;
26038;SDS011;13815;52.374;4.882;2023-05-29T01:01:13;40.75;;;26.20;;
26038;SDS011;13815;52.374;4.882;2023-05-29T01:03:39;37.20;;;25.60;;
26038;SDS011;13815;52.374;4.882;2023-05-29T01:06:06;42.40;;;26.25;;
26038;SDS011;13815;52.374;4.882;2023-05-29T01:08:32;39.03;;;26.25;;
26038;SDS011;13815;52.374;4.882;2023-05-29T01:11:00;37.40;;;25.80;;
26038;SDS011;13815;52.374;4.882;2023-05-29T01:13:30;41.78;;;26.00;;
26038;SDS011;13815;52.374;4.882;2023-05-29T01:16:12;38.13;;;25.38;;
26038;SDS011;13815;52.374;4.882;2023-05-29T01:21:42;44.33;;;26.23;;
26038;SDS011;13815;52.374;4.882;2023-05-29T01:27:19;38.38;;;25.75;;
26038;SDS011;13815;52.374;4.882;2023-05-29T01:29:50;36.28;;;24.92;;
26038;SDS011;13815;52.374;4.882;2023-05-29T01:32:16;36.88;;;25.27;;
26038;SDS011;13815;52.374;4.882;2023-05-29T01:34:42;44.38;;;26.63;;
26038;SDS011;13815;52.374;4.882;2023-05-29T01:37:08;39.67;;;25.02;;
26038;SDS011;13815;52.374;4.882;2023-05-29T01:39:33;43.67;;;25.88;;
26038;SDS011;13815;52.374;4.882;2023-05-29T01:42:00;46.33;;;27.25;;
26038;SDS011;13815;52.374;4.882;2023-05-29T01:44:26;42.50;;;26.42;;
26038;SDS011;13815;52.374;4.882;2023-05-29T01:46:52;35.53;;;25.88;;
26038;SDS011;13815;52.374;4.882;2023-05-29T01:49:18;37.92;;;26.30;;
26038;SDS011;13815;52.374;4.882;2023-05-29T01:51:46;46.25;;;26.00;;
26038;SDS011;13815;52.374;4.882;2023-05-29T01:54:12;34.78;;;24.85;;
26038;SDS011;13815;52.374;4.882;2023-05-29T01:56:38;34.88;;;25.05;;
26038;SDS011;13815;52.374;4.882;2023-05-29T01:59:06;36.92;;;24.10;;
26038;SDS011;13815;52.374;4.882;2023-05-29T02:01:31;38.33;;;23.90;;
26038;SDS011;13815;52.374;4.882;2023-05-29T02:03:57;39.38;;;24.30;;
26038;SDS011;13815;52.374;4.882;2023-05-29T02:06:23;32.90;;;23.63;;
26038;SDS011;13815;52.374;4.882;2023-05-29T02:08:48;41.10;;;23.67;;
26038;SDS011;13815;52.374;4.882;2023-05-29T02:11:14;42.70;;;25.20;;
26038;SDS011;13815;52.374;4.882;2023-05-29T02:13:42;32.78;;;22.98;;
26038;SDS011;13815;52.374;4.882;2023-05-29T02:16:08;34.80;;;23.15;;
26038;SDS011;13815;52.374;4.882;2023-05-29T02:18:33;41.60;;;24.60;;
26038;SDS011;13815;52.374;4.882;2023-05-29T02:20:59;34.15;;;23.63;;
26038;SDS011;13815;52.374;4.882;2023-05-29T02:23:26;38.50;;;23.85;;
26038;SDS011;13815;52.374;4.882;2023-05-29T02:25:51;31.20;;;22.80;;
26038;SDS011;13815;52.374;4.882;2023-05-29T02:28:17;32.53;;;23.45;;
26038;SDS011;13815;52.374;4.882;2023-05-29T02:30:42;33.00;;;23.63;;
26038;SDS011;13815;52.374;4.882;2023-05-29T02:33:08;33.33;;;23.63;;
26038;SDS011;13815;52.374;4.882;2023-05-29T02:35:33;37.45;;;23.70;;
26038;SDS011;13815;52.374;4.882;2023-05-29T02:37:59;31.98;;;23.48;;
26038;SDS011;13815;52.374;4.882;2023-05-29T02:40:28;30.25;;;22.50;;
26038;SDS011;13815;52.374;4.882;2023-05-29T02:42:53;29.42;;;22.73;;
26038;SDS011;13815;52.374;4.882;2023-05-29T02:45:26;37.33;;;23.23;;
26038;SDS011;13815;52.374;4.882;2023-05-29T02:47:52;30.40;;;22.55;;
26038;SDS011;13815;52.374;4.882;2023-05-29T02:50:17;32.03;;;22.90;;
26038;SDS011;13815;52.374;4.882;2023-05-29T02:52:42;34.53;;;23.00;;
26038;SDS011;13815;52.374;4.882;2023-05-29T02:55:08;37.22;;;23.23;;
26038;SDS011;13815;52.374;4.882;2023-05-29T02:57:34;31.58;;;22.95;;
26038;SDS011;13815;52.374;4.882;2023-05-29T03:00:00;29.40;;;22.13;;
26038;SDS011;13815;52.374;4.882;2023-05-29T03:02:25;37.30;;;22.90;;
26038;SDS011;13815;52.374;4.882;2023-05-29T03:04:51;30.27;;;22.10;;
26038;SDS011;13815;52.374;4.882;2023-05-29T03:07:18;33.47;;;22.90;;
26038;SDS011;13815;52.374;4.882;2023-05-29T03:09:44;35.92;;;22.88;;
26038;SDS011;13815;52.374;4.882;2023-05-29T03:12:10;37.25;;;23.02;;
26038;SDS011;13815;52.374;4.882;2023-05-29T03:14:36;37.72;;;23.63;;
26038;SDS011;13815;52.374;4.882;2023-05-29T03:17:03;30.58;;;22.73;;
26038;SDS011;13815;52.374;4.882;2023-05-29T03:19:30;39.78;;;23.02;;
26038;SDS011;13815;52.374;4.882;2023-05-29T03:21:56;37.40;;;22.95;;
26038;SDS011;13815;52.374;4.882;2023-05-29T03:24:21;31.48;;;22.52;;
26038;SDS011;13815;52.374;4.882;2023-05-29T03:26:48;35.97;;;22.80;;
26038;SDS011;13815;52.374;4.882;2023-05-29T03:29:17;34.00;;;22.40;;
26038;SDS011;13815;52.374;4.882;2023-05-29T03:31:43;31.35;;;22.15;;
26038;SDS011;13815;52.374;4.882;2023-05-29T03:34:08;36.53;;;22.35;;
26038;SDS011;13815;52.374;4.882;2023-05-29T03:36:34;37.17;;;22.50;;
26038;SDS011;13815;52.374;4.882;2023-05-29T03:39:04;37.92;;;22.38;;
26038;SDS011;13815;52.374;4.882;2023-05-29T03:41:31;36.03;;;22.70;;
26038;SDS011;13815;52.374;4.882;2023-05-29T03:43:56;30.13;;;21.95;;
26038;SDS011;13815;52.374;4.882;2023-05-29T03:46:22;32.38;;;22.23;;
26038;SDS011;13815;52.374;4.882;2023-05-29T03:48:47;38.47;;;22.90;;
26038;SDS011;13815;52.374;4.882;2023-05-29T03:51:13;32.15;;;22.50;;
26038;SDS011;13815;52.374;4.882;2023-05-29T03:53:38;31.90;;;22.10;;
26038;SDS011;13815;52.374;4.882;2023-05-29T03:56:07;38.28;;;22.50;;
26038;SDS011;13815;52.374;4.882;2023-05-29T03:58:33;35.90;;;22.45;;
26038;SDS011;13815;52.374;4.882;2023-05-29T04:01:01;31.27;;;22.83;;
26038;SDS011;13815;52.374;4.882;2023-05-29T04:03:29;35.45;;;23.20;;
26038;SDS011;13815;52.374;4.882;2023-05-29T04:05:56;39.28;;;23.20;;
26038;SDS011;13815;52.374;4.882;2023-05-29T04:08:24;39.03;;;23.60;;
26038;SDS011;13815;52.374;4.882;2023-05-29T04:10:55;35.15;;;23.35;;
26038;SDS011;13815;52.374;4.882;2023-05-29T04:13:24;30.08;;;22.83;;
26038;SDS011;13815;52.374;4.882;2023-05-29T04:15:49;30.98;;;22.90;;
26038;SDS011;13815;52.374;4.882;2023-05-29T04:18:17;37.58;;;23.58;;
26038;SDS011;13815;52.374;4.882;2023-05-29T04:20:50;35.45;;;23.52;;
26038;SDS011;13815;52.374;4.882;2023-05-29T04:23:19;40.97;;;23.65;;
26038;SDS011;13815;52.374;4.882;2023-05-29T04:25:45;30.98;;;22.67;;
26038;SDS011;13815;52.374;4.882;2023-05-29T04:28:16;30.17;;;22.60;;
26038;SDS011;13815;52.374;4.882;2023-05-29T04:30:42;38.38;;;23.63;;
26038;SDS011;13815;52.374;4.882;2023-05-29T04:33:10;34.58;;;22.58;;
26038;SDS011;13815;52.374;4.882;2023-05-29T04:35:37;33.70;;;22.90;;
26038;SDS011;13815;52.374;4.882;2023-05-29T04:38:05;34.88;;;23.08;;
26038;SDS011;13815;52.374;4.882;2023-05-29T04:40:32;35.88;;;22.98;;
26038;SDS011;13815;52.374;4.882;2023-05-29T04:43:01;29.92;;;22.80;;
26038;SDS011;13815;52.374;4.882;2023-05-29T04:45:27;33.88;;;23.17;;
26038;SDS011;13815;52.374;4.882;2023-05-29T04:47:53;30.13;;;22.73;;
26038;SDS011;13815;52.374;4.882;2023-05-29T04:50:20;30.98;;;22.67;;
26038;SDS011;13815;52.374;4.882;2023-05-29T04:52:45;47.33;;;24.10;;
26038;SDS011;13815;52.374;4.882;2023-05-29T04:55:16;31.60;;;22.63;;
26038;SDS011;13815;52.374;4.882;2023-05-29T04:57:41;33.20;;;22.02;;
26038;SDS011;13815;52.374;4.882;2023-05-29T05:00:07;37.25;;;22.23;;
26038;SDS011;13815;52.374;4.882;2023-05-29T05:02:42;32.07;;;21.80;;
26038;SDS011;13815;52.374;4.882;2023-05-29T05:05:09;29.70;;;21.48;;
26038;SDS011;13815;52.374;4.882;2023-05-29T05:07:35;28.17;;;21.25;;
26038;SDS011;13815;52.374;4.882;2023-05-29T05:10:01;33.78;;;22.02;;
26038;SDS011;13815;52.374;4.882;2023-05-29T05:12:27;31.88;;;22.50;;
26038;SDS011;13815;52.374;4.882;2023-05-29T05:14:54;27.40;;;21.50;;
26038;SDS011;13815;52.374;4.882;2023-05-29T05:17:20;36.10;;;22.17;;
26038;SDS011;13815;52.374;4.882;2023-05-29T05:19:45;33.85;;;21.98;;
26038;SDS011;13815;52.374;4.882;2023-05-29T05:22:11;33.53;;;21.92;;
26038;SDS011;13815;52.374;4.882;2023-05-29T05:24:36;39.55;;;22.85;;
26038;SDS011;13815;52.374;4.882;2023-05-29T05:27:03;38.95;;;22.95;;
26038;SDS011;13815;52.374;4.882;2023-05-29T05:29:30;34.30;;;22.55;;
26038;SDS011;13815;52.374;4.882;2023-05-29T05:31:55;30.40;;;21.52;;
26038;SDS011;13815;52.374;4.882;2023-05-29T05:34:21;32.28;;;22.58;;
26038;SDS011;13815;52.374;4.882;2023-05-29T05:36:46;33.25;;;22.85;;
26038;SDS011;13815;52.374;4.882;2023-05-29T05:39:11;35.25;;;23.20;;
26038;SDS011;13815;52.374;4.882;2023-05-29T05:41:39;31.08;;;22.63;;
26038;SDS011;13815;52.374;4.882;2023-05-29T05:44:05;36.13;;;23.10;;
26038;SDS011;13815;52.374;4.882;2023-05-29T05:46:30;37.15;;;22.90;;
26038;SDS011;13815;52.374;4.882;2023-05-29T05:48:56;28.83;;;21.90;;
26038;SDS011;13815;52.374;4.882;2023-05-29T05:51:25;39.20;;;23.42;;
26038;SDS011;13815;52.374;4.882;2023-05-29T05:53:51;32.53;;;22.88;;
26038;SDS011;13815;52.374;4.882;2023-05-29T05:56:17;44.85;;;25.00;;
26038;SDS011;13815;52.374;4.882;2023-05-29T05:58:42;33.08;;;22.95;;
26038;SDS011;13815;52.374;4.882;2023-05-29T06:01:10;34.17;;;23.42;;
26038;SDS011;13815;52.374;4.882;2023-05-29T06:03:36;33.88;;;23.48;;
26038;SDS011;13815;52.374;4.882;2023-05-29T06:06:05;39.05;;;23.77;;
26038;SDS011;13815;52.374;4.882;2023-05-29T06:08:32;33.15;;;23.83;;
26038;SDS011;13815;52.374;4.882;2023-05-29T06:10:57;39.47;;;23.77;;
26038;SDS011;13815;52.374;4.882;2023-05-29T06:13:23;40.33;;;23.98;;
26038;SDS011;13815;52.374;4.882;2023-05-29T06:15:48;36.78;;;24.08;;
26038;SDS011;13815;52.374;4.882;2023-05-29T06:18:14;38.28;;;24.25;;
26038;SDS011;13815;52.374;4.882;2023-05-29T06:20:42;31.33;;;23.40;;
26038;SDS011;13815;52.374;4.882;2023-05-29T06:23:08;35.22;;;23.80;;
26038;SDS011;13815;52.374;4.882;2023-05-29T06:25:34;33.95;;;23.35;;
26038;SDS011;13815;52.374;4.882;2023-05-29T06:28:00;32.03;;;22.80;;
26038;SDS011;13815;52.374;4.882;2023-05-29T06:30:30;39.13;;;23.42;;
26038;SDS011;13815;52.374;4.882;2023-05-29T06:32:56;39.55;;;23.33;;
26038;SDS011;13815;52.374;4.882;2023-05-29T06:35:22;30.88;;;22.75;;
26038;SDS011;13815;52.374;4.882;2023-05-29T06:37:48;36.28;;;23.90;;
26038;SDS011;13815;52.374;4.882;2023-05-29T06:40:14;35.20;;;23.20;;
26038;SDS011;13815;52.374;4.882;2023-05-29T06:42:52;31.45;;;22.63;;
26038;SDS011;13815;52.374;4.882;2023-05-29T06:45:17;31.65;;;22.23;;
26038;SDS011;13815;52.374;4.882;2023-05-29T06:47:43;32.10;;;23.05;;
26038;SDS011;13815;52.374;4.882;2023-05-29T06:50:16;36.90;;;23.30;;
26038;SDS011;13815;52.374;4.882;2023-05-29T06:52:44;29.40;;;22.27;;
26038;SDS011;13815;52.374;4.882;2023-05-29T06:55:13;28.23;;;21.73;;
26038;SDS011;13815;52.374;4.882;2023-05-29T06:57:38;31.15;;;22.55;;
26038;SDS011;13815;52.374;4.882;2023-05-29T07:00:06;34.30;;;23.42;;
26038;SDS011;13815;52.374;4.882;2023-05-29T07:02:34;36.63;;;22.88;;
26038;SDS011;13815;52.374;4.882;2023-05-29T07:05:02;31.40;;;22.98;;
26038;SDS011;13815;52.374;4.882;2023-05-29T07:07:37;30.38;;;23.40;;
26038;SDS011;13815;52.374;4.882;2023-05-29T07:10:03;37.95;;;23.85;;
26038;SDS011;13815;52.374;4.882;2023-05-29T07:12:28;33.53;;;23.73;;
26038;SDS011;13815;52.374;4.882;2023-05-29T07:14:54;34.10;;;24.63;;
26038;SDS011;13815;52.374;4.882;2023-05-29T07:17:22;39.83;;;24.75;;
26038;SDS011;13815;52.374;4.882;2023-05-29T07:19:48;43.50;;;25.33;;
26038;SDS011;13815;52.374;4.882;2023-05-29T07:22:14;37.78;;;24.73;;
26038;SDS011;13815;52.374;4.882;2023-05-29T07:24:40;40.42;;;25.42;;
26038;SDS011;13815;52.374;4.882;2023-05-29T07:27:06;33.00;;;24.63;;
26038;SDS011;13815;52.374;4.882;2023-05-29T07:29:31;36.92;;;23.92;;
26038;SDS011;13815;52.374;4.882;2023-05-29T07:31:57;34.63;;;24.23;;
26038;SDS011;13815;52.374;4.882;2023-05-29T07:34:22;35.70;;;25.50;;
26038;SDS011;13815;52.374;4.882;2023-05-29T07:39:25;34.03;;;24.75;;
26038;SDS011;13815;52.374;4.882;2023-05-29T07:41:51;42.47;;;24.90;;
26038;SDS011;13815;52.374;4.882;2023-05-29T07:44:20;40.05;;;25.00;;
26038;SDS011;13815;52.374;4.882;2023-05-29T07:46:46;32.28;;;23.92;;
26038;SDS011;13815;52.374;4.882;2023-05-29T07:49:14;44.47;;;25.58;;
26038;SDS011;13815;52.374;4.882;2023-05-29T07:51:42;34.38;;;24.40;;
26038;SDS011;13815;52.374;4.882;2023-05-29T07:54:08;37.17;;;24.33;;
26038;SDS011;13815;52.374;4.882;2023-05-29T07:56:33;39.78;;;24.30;;
26038;SDS011;13815;52.374;4.882;2023-05-29T07:58:59;34.85;;;23.83;;
26038;SDS011;13815;52.374;4.882;2023-05-29T08:01:25;34.45;;;24.20;;
26038;SDS011;13815;52.374;4.882;2023-05-29T08:03:51;45.25;;;25.50;;
26038;SDS011;13815;52.374;4.882;2023-05-29T08:06:17;34.35;;;24.65;;
26038;SDS011;13815;52.374;4.882;2023-05-29T08:08:43;40.83;;;24.65;;
26038;SDS011;13815;52.374;4.882;2023-05-29T08:11:09;38.10;;;24.60;;
26038;SDS011;13815;52.374;4.882;2023-05-29T08:13:34;36.85;;;25.13;;
26038;SDS011;13815;52.374;4.882;2023-05-29T08:16:00;44.58;;;25.27;;
26038;SDS011;13815;52.374;4.882;2023-05-29T08:18:26;33.97;;;23.73;;
26038;SDS011;13815;52.374;4.882;2023-05-29T08:20:54;31.98;;;23.40;;
26038;SDS011;13815;52.374;4.882;2023-05-29T08:23:19;38.80;;;23.17;;
26038;SDS011;13815;52.374;4.882;2023-05-29T08:25:45;36.22;;;24.58;;
26038;SDS011;13815;52.374;4.882;2023-05-29T08:28:11;46.22;;;25.60;;
26038;SDS011;13815;52.374;4.882;2023-05-29T08:30:36;41.70;;;25.45;;
26038;SDS011;13815;52.374;4.882;2023-05-29T08:33:02;31.30;;;23.80;;
26038;SDS011;13815;52.374;4.882;2023-05-29T08:35:28;39.35;;;25.00;;
26038;SDS011;13815;52.374;4.882;2023-05-29T08:37:54;39.92;;;25.40;;
26038;SDS011;13815;52.374;4.882;2023-05-29T08:40:19;33.58;;;24.05;;
26038;SDS011;13815;52.374;4.882;2023-05-29T08:42:47;41.13;;;25.83;;
26038;SDS011;13815;52.374;4.882;2023-05-29T08:45:14;31.58;;;23.60;;
26038;SDS011;13815;52.374;4.882;2023-05-29T08:47:40;35.58;;;24.38;;
26038;SDS011;13815;52.374;4.882;2023-05-29T08:50:06;36.22;;;24.35;;
26038;SDS011;13815;52.374;4.882;2023-05-29T08:52:35;33.75;;;24.00;;
26038;SDS011;13815;52.374;4.882;2023-05-29T08:55:04;36.60;;;23.70;;
26038;SDS011;13815;52.374;4.882;2023-05-29T08:57:30;35.38;;;23.25;;
26038;SDS011;13815;52.374;4.882;2023-05-29T08:59:58;31.50;;;23.40;;
26038;SDS011;13815;52.374;4.882;2023-05-29T09:02:25;36.38;;;23.15;;
26038;SDS011;13815;52.374;4.882;2023-05-29T09:04:50;34.90;;;24.15;;
26038;SDS011;13815;52.374;4.882;2023-05-29T09:07:19;32.03;;;24.00;;
26038;SDS011;13815;52.374;4.882;2023-05-29T09:09:45;33.58;;;24.88;;
26038;SDS011;13815;52.374;4.882;2023-05-29T09:12:11;34.60;;;25.02;;
26038;SDS011;13815;52.374;4.882;2023-05-29T09:14:41;34.65;;;25.10;;
26038;SDS011;13815;52.374;4.882;2023-05-29T09:17:07;43.25;;;26.30;;
26038;SDS011;13815;52.374;4.882;2023-05-29T09:19:34;35.75;;;25.35;;
26038;SDS011;13815;52.374;4.882;2023-05-29T09:22:04;37.80;;;24.88;;
26038;SDS011;13815;52.374;4.882;2023-05-29T09:24:32;40.00;;;24.92;;
26038;SDS011;13815;52.374;4.882;2023-05-29T09:27:00;38.30;;;25.45;;
26038;SDS011;13815;52.374;4.882;2023-05-29T09:29:26;38.33;;;25.48;;
26038;SDS011;13815;52.374;4.882;2023-05-29T09:31:52;41.25;;;26.08;;
26038;SDS011;13815;52.374;4.882;2023-05-29T09:34:19;53.13;;;26.80;;
26038;SDS011;13815;52.374;4.882;2023-05-29T09:36:52;52.08;;;26.70;;
26038;SDS011;13815;52.374;4.882;2023-05-29T09:39:21;40.38;;;25.70;;
26038;SDS011;13815;52.374;4.882;2023-05-29T09:41:50;38.95;;;25.38;;
26038;SDS011;13815;52.374;4.882;2023-05-29T09:44:18;35.75;;;25.20;;
26038;SDS011;13815;52.374;4.882;2023-05-29T09:46:44;42.25;;;25.45;;
26038;SDS011;13815;52.374;4.882;2023-05-29T09:49:13;39.83;;;25.63;;
26038;SDS011;13815;52.374;4.882;2023-05-29T09:51:39;35.85;;;24.88;;
26038;SDS011;13815;52.374;4.882;2023-05-29T09:54:16;38.20;;;25.73;;
26038;SDS011;13815;52.374;4.882;2023-05-29T09:56:43;33.55;;;25.48;;
26038;SDS011;13815;52.374;4.882;2023-05-29T09:59:13;42.08;;;26.92;;
26038;SDS011;13815;52.374;4.882;2023-05-29T10:01:40;39.58;;;26.10;;
26038;SDS011;13815;52.374;4.882;2023-05-29T10:04:12;35.67;;;25.88;;
26038;SDS011;13815;52.374;4.882;2023-05-29T10:06:38;34.75;;;26.20;;
26038;SDS011;13815;52.374;4.882;2023-05-29T10:09:08;42.00;;;27.25;;
26038;SDS011;13815;52.374;4.882;2023-05-29T10:11:43;42.00;;;27.02;;
26038;SDS011;13815;52.374;4.882;2023-05-29T10:14:09;39.13;;;26.85;;
26038;SDS011;13815;52.374;4.882;2023-05-29T10:16:37;42.67;;;27.52;;
26038;SDS011;13815;52.374;4.882;2023-05-29T10:19:07;33.85;;;25.27;;
26038;SDS011;13815;52.374;4.882;2023-05-29T10:21:37;33.22;;;25.08;;
26038;SDS011;13815;52.374;4.882;2023-05-29T10:24:06;40.15;;;25.90;;
26038;SDS011;13815;52.374;4.882;2023-05-29T10:26:34;34.92;;;25.83;;
26038;SDS011;13815;52.374;4.882;2023-05-29T10:29:03;39.15;;;26.42;;
26038;SDS011;13815;52.374;4.882;2023-05-29T10:31:35;40.43;;;26.03;;
26038;SDS011;13815;52.374;4.882;2023-05-29T10:40:05;38.35;;;25.50;;
26038;SDS011;13815;52.374;4.882;2023-05-29T10:45:03;44.92;;;28.20;;
26038;SDS011;13815;52.374;4.882;2023-05-29T10:47:29;37.28;;;26.80;;
26038;SDS011;13815;52.374;4.882;2023-05-29T10:49:59;45.03;;;27.35;;
26038;SDS011;13815;52.374;4.882;2023-05-29T10:52:25;40.70;;;26.83;;
26038;SDS011;13815;52.374;4.882;2023-05-29T10:54:51;36.80;;;26.00;;
26038;SDS011;13815;52.374;4.882;2023-05-29T10:57:22;35.15;;;25.15;;
26038;SDS011;13815;52.374;4.882;2023-05-29T10:59:56;35.80;;;25.15;;
26038;SDS011;13815;52.374;4.882;2023-05-29T11:02:25;44.58;;;26.63;;
26038;SDS011;13815;52.374;4.882;2023-05-29T11:05:36;41.15;;;26.40;;
26038;SDS011;13815;52.374;4.882;2023-05-29T11:07:50;34.85;;;25.35;;
26038;SDS011;13815;52.374;4.882;2023-05-29T11:13:26;33.85;;;25.45;;
26038;SDS011;13815;52.374;4.882;2023-05-29T11:18:47;42.15;;;26.65;;
26038;SDS011;13815;52.374;4.882;2023-05-29T11:24:28;41.50;;;27.30;;
26038;SDS011;13815;52.374;4.882;2023-05-29T11:26:56;39.80;;;27.30;;
26038;SDS011;13815;52.374;4.882;2023-05-29T11:29:30;39.15;;;27.25;;
26038;SDS011;13815;52.374;4.882;2023-05-29T11:32:05;40.03;;;27.38;;
26038;SDS011;13815;52.374;4.882;2023-05-29T11:34:33;37.17;;;26.30;;
26038;SDS011;13815;52.374;4.882;2023-05-29T11:37:11;35.72;;;25.23;;
26038;SDS011;13815;52.374;4.882;2023-05-29T11:39:46;34.38;;;24.85;;
26038;SDS011;13815;52.374;4.882;2023-05-29T11:42:17;35.45;;;25.27;;
26038;SDS011;13815;52.374;4.882;2023-05-29T11:44:43;47.70;;;26.55;;
26038;SDS011;13815;52.374;4.882;2023-05-29T11:47:08;44.17;;;25.05;;
26038;SDS011;13815;52.374;4.882;2023-05-29T11:49:37;39.70;;;25.13;;
26038;SDS011;13815;52.374;4.882;2023-05-29T11:52:12;41.55;;;25.35;;
26038;SDS011;13815;52.374;4.882;2023-05-29T11:54:39;36.63;;;25.60;;
26038;SDS011;13815;52.374;4.882;2023-05-29T11:59:45;41.92;;;25.27;;
26038;SDS011;13815;52.374;4.882;2023-05-29T12:02:13;37.95;;;25.05;;
26038;SDS011;13815;52.374;4.882;2023-05-29T12:04:39;37.58;;;26.42;;
26038;SDS011;13815;52.374;4.882;2023-05-29T12:07:19;37.13;;;26.08;;
26038;SDS011;13815;52.374;4.882;2023-05-29T12:09:45;35.22;;;24.92;;
26038;SDS011;13815;52.374;4.882;2023-05-29T12:12:10;42.90;;;26.52;;
26038;SDS011;13815;52.374;4.882;2023-05-29T12:14:36;38.47;;;26.48;;
26038;SDS011;13815;52.374;4.882;2023-05-29T12:17:01;44.10;;;27.55;;
26038;SDS011;13815;52.374;4.882;2023-05-29T12:19:38;40.88;;;27.80;;
26038;SDS011;13815;52.374;4.882;2023-05-29T12:22:03;41.33;;;26.85;;
26038;SDS011;13815;52.374;4.882;2023-05-29T12:24:29;42.92;;;26.63;;
26038;SDS011;13815;52.374;4.882;2023-05-29T12:26:56;45.22;;;28.33;;
26038;SDS011;13815;52.374;4.882;2023-05-29T12:29:29;34.97;;;25.42;;
26038;SDS011;13815;52.374;4.882;2023-05-29T12:32:00;39.72;;;27.42;;
26038;SDS011;13815;52.374;4.882;2023-05-29T12:34:25;39.53;;;28.00;;
26038;SDS011;13815;52.374;4.882;2023-05-29T12:37:03;44.35;;;27.40;;
26038;SDS011;13815;52.374;4.882;2023-05-29T12:39:31;46.60;;;27.67;;
26038;SDS011;13815;52.374;4.882;2023-05-29T12:41:56;46.28;;;27.13;;
26038;SDS011;13815;52.374;4.882;2023-05-29T12:44:22;38.63;;;26.60;;
26038;SDS011;13815;52.374;4.882;2023-05-29T12:46:47;40.22;;;27.58;;
26038;SDS011;13815;52.374;4.882;2023-05-29T12:51:42;40.72;;;27.50;;
26038;SDS011;13815;52.374;4.882;2023-05-29T12:54:11;35.28;;;26.13;;
26038;SDS011;13815;52.374;4.882;2023-05-29T12:56:41;41.33;;;27.88;;
26038;SDS011;13815;52.374;4.882;2023-05-29T12:59:09;41.55;;;27.25;;
26038;SDS011;13815;52.374;4.882;2023-05-29T13:01:38;41.17;;;26.55;;
26038;SDS011;13815;52.374;4.882;2023-05-29T13:04:04;41.10;;;26.92;;
26038;SDS011;13815;52.374;4.882;2023-05-29T13:06:32;37.15;;;25.83;;
26038;SDS011;13815;52.374;4.882;2023-05-29T13:09:02;46.65;;;26.50;;
26038;SDS011;13815;52.374;4.882;2023-05-29T13:11:27;44.90;;;26.73;;
26038;SDS011;13815;52.374;4.882;2023-05-29T13:13:52;42.58;;;26.55;;
26038;SDS011;13815;52.374;4.882;2023-05-29T13:16:18;39.80;;;25.88;;
26038;SDS011;13815;52.374;4.882;2023-05-29T13:18:43;41.25;;;26.45;;
26038;SDS011;13815;52.374;4.882;2023-05-29T13:21:09;43.08;;;27.08;;
26038;SDS011;13815;52.374;4.882;2023-05-29T13:23:35;42.53;;;27.40;;
26038;SDS011;13815;52.374;4.882;2023-05-29T13:26:01;41.45;;;26.33;;
26038;SDS011;13815;52.374;4.882;2023-05-29T13:28:28;40.08;;;27.00;;
26038;SDS011;13815;52.374;4.882;2023-05-29T13:30:54;38.38;;;26.77;;
26038;SDS011;13815;52.374;4.882;2023-05-29T13:33:19;45.58;;;28.02;;
26038;SDS011;13815;52.374;4.882;2023-05-29T13:35:45;44.00;;;27.27;;
26038;SDS011;13815;52.374;4.882;2023-05-29T13:38:10;38.40;;;26.55;;
26038;SDS011;13815;52.374;4.882;2023-05-29T13:40:36;43.30;;;26.67;;
26038;SDS011;13815;52.374;4.882;2023-05-29T13:43:01;49.30;;;27.88;;
26038;SDS011;13815;52.374;4.882;2023-05-29T13:45:26;39.47;;;29.35;;
26038;SDS011;13815;52.374;4.882;2023-05-29T13:47:53;44.75;;;29.70;;
26038;SDS011;13815;52.374;4.882;2023-05-29T13:50:19;47.67;;;29.50;;
26038;SDS011;13815;52.374;4.882;2023-05-29T13:52:47;39.97;;;28.75;;
26038;SDS011;13815;52.374;4.882;2023-05-29T13:55:14;44.15;;;29.33;;
26038;SDS011;13815;52.374;4.882;2023-05-29T13:57:40;46.05;;;29.85;;
26038;SDS011;13815;52.374;4.882;2023-05-29T14:00:11;39.50;;;29.25;;
26038;SDS011;13815;52.374;4.882;2023-05-29T14:02:37;44.90;;;29.70;;
26038;SDS011;13815;52.374;4.882;2023-05-29T14:05:02;37.25;;;28.23;;
26038;SDS011;13815;52.374;4.882;2023-05-29T14:07:28;45.65;;;29.42;;
26038;SDS011;13815;52.374;4.882;2023-05-29T14:09:54;41.45;;;27.48;;
26038;SDS011;13815;52.374;4.882;2023-05-29T14:12:22;36.53;;;28.00;;
26038;SDS011;13815;52.374;4.882;2023-05-29T14:14:48;36.53;;;28.35;;
26038;SDS011;13815;52.374;4.882;2023-05-29T14:17:13;47.33;;;30.08;;
26038;SDS011;13815;52.374;4.882;2023-05-29T14:19:39;38.13;;;27.48;;
26038;SDS011;13815;52.374;4.882;2023-05-29T14:22:05;38.47;;;28.23;;
26038;SDS011;13815;52.374;4.882;2023-05-29T14:24:34;41.22;;;28.65;;
26038;SDS011;13815;52.374;4.882;2023-05-29T14:27:01;43.67;;;27.80;;
26038;SDS011;13815;52.374;4.882;2023-05-29T14:29:30;43.33;;;27.50;;
26038;SDS011;13815;52.374;4.882;2023-05-29T14:31:56;39.38;;;27.70;;
26038;SDS011;13815;52.374;4.882;2023-05-29T14:34:21;45.13;;;28.02;;
26038;SDS011;13815;52.374;4.882;2023-05-29T14:36:47;49.47;;;29.73;;
26038;SDS011;13815;52.374;4.882;2023-05-29T14:39:14;44.20;;;28.95;;
26038;SDS011;13815;52.374;4.882;2023-05-29T14:41:41;42.17;;;27.90;;
26038;SDS011;13815;52.374;4.882;2023-05-29T14:44:07;48.38;;;29.40;;
26038;SDS011;13815;52.374;4.882;2023-05-29T14:46:32;38.45;;;28.85;;
26038;SDS011;13815;52.374;4.882;2023-05-29T14:49:01;43.95;;;29.67;;
26038;SDS011;13815;52.374;4.882;2023-05-29T14:51:30;39.05;;;28.38;;